Time;durP1;ratioP1;P1;durP2;ratioP2;P2;SDS_P1;SDS_P2;PMS_P1;PMS_P2;Temp;Humidity;BMP_temperature;BMP_pressure;BME280_temperature;BME280_humidity;BME280_pressure;Samples;Min_cycle;Max_cycle;Signal;HPM_P1;HPM_P2
2022/09/24 00:01:29;;;;;;;5.10;4.00;;;22.40;43.50;;;;;;4988900;28;20046;-60
2022/09/24 00:04:02;;;;;;;4.40;3.60;;;22.40;43.50;;;;;;4988990;28;20052;-60
2022/09/24 00:06:33;;;;;;;6.28;3.78;;;22.40;43.50;;;;;;4988747;28;20458;-60
2022/09/24 00:09:00;;;;;;;4.20;3.47;;;22.40;43.50;;;;;;4939810;28;20058;-60
2022/09/24 00:11:28;;;;;;;6.93;4.40;;;22.40;43.50;;;;;;4989561;28;20416;-60
2022/09/24 00:13:57;;;;;;;4.70;3.90;;;22.40;43.50;;;;;;4988763;28;20062;-60
2022/09/24 00:16:27;;;;;;;5.38;4.00;;;22.40;43.50;;;;;;4988552;28;20050;-60
2022/09/24 00:18:54;;;;;;;4.70;3.65;;;22.40;43.50;;;;;;4989431;28;20124;-60
2022/09/24 00:21:25;;;;;;;3.97;3.50;;;22.30;43.50;;;;;;4989309;28;20129;-60
2022/09/24 00:23:53;;;;;;;;;;;22.30;43.50;;;;;;4989369;28;20046;-60
2022/09/24 00:29:10;;;;;;;5.70;3.97;;;22.30;43.50;;;;;;4988924;28;20542;-60
2022/09/24 00:31:37;;;;;;;4.13;3.72;;;22.30;44.10;;;;;;4988840;28;20046;-60
2022/09/24 00:34:04;;;;;;;3.80;3.40;;;22.30;43.50;;;;;;4988306;28;20073;-60
2022/09/24 00:36:31;;;;;;;4.38;3.53;;;22.30;43.50;;;;;;4971589;28;20325;-60
2022/09/24 00:38:59;;;;;;;5.85;4.00;;;22.30;43.50;;;;;;4988563;28;20046;-60
2022/09/24 00:41:30;;;;;;;4.18;3.00;;;22.30;43.60;;;;;;4988949;28;20134;-60
2022/09/24 00:43:58;;;;;;;4.82;3.45;;;22.30;43.60;;;;;;4988736;28;20046;-60
2022/09/24 00:46:39;;;;;;;3.97;3.58;;;22.30;43.60;;;;;;4988423;28;20494;-60
2022/09/24 00:49:13;;;;;;;4.45;3.55;;;22.30;43.70;;;;;;4988145;28;20062;-60
2022/09/24 00:51:43;;;;;;;4.18;3.38;;;22.30;43.70;;;;;;4970961;28;20054;-60
2022/09/24 00:54:15;;;;;;;5.50;3.90;;;22.30;43.70;;;;;;4988496;28;20553;-60
2022/09/24 00:56:45;;;;;;;3.28;2.97;;;22.30;43.70;;;;;;4986592;28;20507;-60
2022/09/24 00:59:16;;;;;;;4.90;3.78;;;22.30;43.80;;;;;;4985544;28;20046;-60
2022/09/24 01:01:45;;;;;;;4.00;3.22;;;22.30;43.80;;;;;;4972131;28;20070;-60
2022/09/24 01:04:15;;;;;;;4.53;2.97;;;22.30;43.80;;;;;;4987885;28;20105;-60
2022/09/24 01:06:42;;;;;;;3.50;3.10;;;22.30;43.70;;;;;;4988971;28;20264;-60
2022/09/24 01:09:10;;;;;;;3.95;3.15;;;22.30;43.80;;;;;;4988196;28;20350;-60
2022/09/24 01:11:59;;;;;;;4.35;3.10;;;22.30;43.80;;;;;;5019630;28;20557;-60
2022/09/24 01:14:58;;;;;;;4.38;3.15;;;22.30;43.70;;;;;;5027024;28;20294;-60
2022/09/24 01:17:49;;;;;;;4.43;3.20;;;22.30;43.70;;;;;;5018684;28;20056;-60
2022/09/24 01:20:51;;;;;;;3.83;3.25;;;22.30;43.70;;;;;;5013881;28;20057;-60
2022/09/24 01:23:46;;;;;;;4.18;3.20;;;22.30;43.60;;;;;;5031479;28;20050;-60
2022/09/24 01:26:55;;;;;;;3.72;3.25;;;22.30;43.60;;;;;;5031417;28;20482;-60
2022/09/24 01:29:40;;;;;;;3.70;3.00;;;22.30;43.60;;;;;;5031292;28;20050;-60
2022/09/24 01:32:24;;;;;;;3.65;2.83;;;22.30;43.60;;;;;;5028541;28;20049;-60
2022/09/24 01:35:04;;;;;;;3.95;3.05;;;22.30;43.60;;;;;;5014319;28;20076;-60
2022/09/24 01:37:33;;;;;;;2.88;2.55;;;22.30;43.60;;;;;;5013807;28;20482;-60
2022/09/24 01:40:03;;;;;;;4.32;3.08;;;22.20;43.60;;;;;;5030865;28;20468;-60
2022/09/24 01:42:32;;;;;;;4.22;3.15;;;22.30;43.60;;;;;;5030957;28;20490;-61
2022/09/24 01:45:01;;;;;;;4.40;3.28;;;22.20;43.60;;;;;;5030835;28;20053;-60
2022/09/24 01:47:32;;;;;;;3.75;3.05;;;22.30;43.60;;;;;;5011734;28;20044;-60
2022/09/24 01:50:02;;;;;;;4.07;2.67;;;22.20;43.60;;;;;;5011200;28;20061;-60
2022/09/24 01:52:37;;;;;;;5.10;3.30;;;22.20;43.60;;;;;;5010624;28;20050;-60
2022/09/24 01:55:06;;;;;;;3.80;2.95;;;22.20;43.60;;;;;;4993864;28;20513;-60
2022/09/24 01:57:49;;;;;;;4.68;2.88;;;22.20;43.60;;;;;;5011035;28;20052;-61
2022/09/24 02:00:20;;;;;;;3.63;2.80;;;22.20;43.60;;;;;;5011048;28;20049;-60
2022/09/24 02:02:57;;;;;;;3.90;2.95;;;22.20;43.60;;;;;;5005988;28;20482;-60
2022/09/24 02:05:35;;;;;;;3.83;2.55;;;22.20;43.60;;;;;;5010931;28;20050;-60
2022/09/24 02:08:15;;;;;;;3.97;3.08;;;22.20;43.70;;;;;;5010330;28;20525;-60
2022/09/24 02:11:05;;;;;;;4.43;2.78;;;22.20;43.60;;;;;;5010076;28;20557;-60
2022/09/24 02:13:39;;;;;;;;;;;22.20;43.60;;;;;;5011030;28;20052;-60
2022/09/24 02:16:10;;;;;;;3.53;3.05;;;22.20;43.60;;;;;;5010868;28;19928;-60
2022/09/24 02:18:41;;;;;;;3.58;2.70;;;22.20;43.60;;;;;;5010658;28;20447;-60
2022/09/24 02:21:12;;;;;;;4.03;2.53;;;22.20;43.60;;;;;;5003287;28;20422;-60
2022/09/24 02:23:49;;;;;;;4.32;2.85;;;22.20;43.60;;;;;;5010537;28;20664;-60
2022/09/24 02:26:17;;;;;;;2.70;2.50;;;22.20;43.70;;;;;;5003825;28;20422;-60
2022/09/24 02:28:44;;;;;;;3.42;2.88;;;22.20;43.70;;;;;;5009703;28;20046;-60
2022/09/24 02:31:16;;;;;;;3.20;2.50;;;22.20;44.20;;;;;;5010853;28;20457;-60
2022/09/24 02:36:37;;;;;;;3.53;2.85;;;22.20;43.70;;;;;;5007906;28;20096;-60
2022/09/24 02:39:04;;;;;;;5.40;2.63;;;22.20;43.70;;;;;;5010216;28;20046;-60
2022/09/24 02:41:32;;;;;;;3.28;2.92;;;22.20;43.70;;;;;;5010433;28;20046;-60
2022/09/24 02:44:00;;;;;;;3.30;2.45;;;22.20;43.70;;;;;;5009590;28;20073;-60
2022/09/24 02:46:27;;;;;;;2.45;2.25;;;22.20;43.70;;;;;;5010035;28;20057;-60
2022/09/24 02:48:55;;;;;;;3.60;2.95;;;22.20;43.70;;;;;;4992890;28;20061;-60
2022/09/24 02:51:22;;;;;;;4.88;2.92;;;22.20;43.80;;;;;;5010246;28;20058;-60
2022/09/24 02:53:49;;;;;;;3.28;2.28;;;22.20;43.80;;;;;;5009916;28;20048;-60
2022/09/24 02:56:16;;;;;;;2.55;2.28;;;22.20;43.80;;;;;;5010347;28;20563;-60
2022/09/24 02:58:43;;;;;;;2.47;2.28;;;22.20;43.80;;;;;;5009103;28;20558;-60
2022/09/24 03:01:10;;;;;;;3.80;2.83;;;22.20;43.80;;;;;;5009929;28;20494;-60
2022/09/24 03:03:37;;;;;;;2.75;2.30;;;22.20;43.90;;;;;;5010005;28;20046;-60
2022/09/24 03:06:05;;;;;;;2.65;2.20;;;22.10;43.80;;;;;;5008152;28;20049;-60
2022/09/24 03:08:34;;;;;;;2.88;2.42;;;22.10;43.80;;;;;;5007242;28;20050;-60
2022/09/24 03:11:01;;;;;;;3.03;2.40;;;22.10;43.80;;;;;;5009519;28;20061;-60
2022/09/24 03:13:28;;;;;;;3.13;2.50;;;22.10;43.80;;;;;;5009612;28;20052;-60
2022/09/24 03:15:55;;;;;;;3.13;2.67;;;22.10;43.80;;;;;;5009430;28;20410;-60
2022/09/24 03:18:22;;;;;;;3.22;2.72;;;22.10;43.80;;;;;;5009720;28;20283;-60
2022/09/24 03:20:57;;;;;;;3.55;2.75;;;22.10;43.80;;;;;;5009301;28;20056;-60
2022/09/24 03:23:24;;;;;;;3.03;1.98;;;22.20;43.80;;;;;;5008495;28;20050;-60
2022/09/24 03:25:52;;;;;;;2.95;2.15;;;22.10;43.70;;;;;;5009524;28;20054;-60
2022/09/24 03:28:19;;;;;;;2.83;2.22;;;22.10;43.60;;;;;;5009314;28;20073;-60
2022/09/24 03:30:59;;;;;;;2.80;2.53;;;22.10;43.60;;;;;;5009431;28;20049;-60
2022/09/24 03:33:33;;;;;;;2.15;1.95;;;22.20;43.70;;;;;;5009564;28;20049;-60
2022/09/24 03:36:07;;;;;;;3.10;2.58;;;22.10;43.60;;;;;;5008934;28;20045;-60
2022/09/24 03:38:35;;;;;;;2.25;2.05;;;22.10;43.60;;;;;;5009039;28;20048;-60
2022/09/24 03:41:03;;;;;;;2.67;2.47;;;22.10;43.60;;;;;;5004138;28;20053;-60
2022/09/24 03:43:31;;;;;;;2.40;2.20;;;22.10;43.60;;;;;;5009034;28;20463;-60
2022/09/24 03:45:59;;;;;;;2.10;1.73;;;22.10;43.60;;;;;;5008992;28;20417;-60
2022/09/24 03:48:26;;;;;;;2.13;1.92;;;22.20;43.70;;;;;;5009069;28;20535;-60
2022/09/24 03:50:53;;;;;;;4.55;2.00;;;22.10;43.60;;;;;;5008850;28;20402;-60
2022/09/24 03:53:20;;;;;;;2.63;2.13;;;22.10;43.60;;;;;;5009227;28;20050;-60
2022/09/24 03:55:53;;;;;;;2.47;1.98;;;22.10;43.60;;;;;;5008381;28;20516;-60
2022/09/24 03:58:21;;;;;;;3.03;2.55;;;22.10;43.60;;;;;;5009259;28;20671;-60
2022/09/24 04:00:53;;;;;;;2.08;1.98;;;22.10;43.60;;;;;;4991599;28;20054;-60
2022/09/24 04:03:21;;;;;;;1.80;1.70;;;22.10;43.60;;;;;;5008850;28;20042;-60
2022/09/24 04:05:52;;;;;;;2.80;2.38;;;22.10;43.60;;;;;;5008296;28;20054;-60
2022/09/24 04:08:21;;;;;;;2.00;1.90;;;22.10;43.60;;;;;;5008828;28;20054;-60
2022/09/24 04:10:49;;;;;;;1.58;1.48;;;22.10;43.60;;;;;;5007019;28;20052;-60
2022/09/24 04:13:17;;;;;;;2.13;1.92;;;22.10;43.60;;;;;;4988343;28;20125;-60
2022/09/24 04:15:44;;;;;;;2.05;1.77;;;22.10;43.60;;;;;;5008439;28;20513;-60
2022/09/24 04:18:11;;;;;;;2.05;1.65;;;22.10;43.60;;;;;;5008455;28;20128;-60
2022/09/24 04:20:38;;;;;;;2.35;1.80;;;22.10;43.60;;;;;;5008730;28;20046;-60
2022/09/24 04:23:05;;;;;;;2.53;2.20;;;22.10;43.60;;;;;;5008284;28;20049;-60
2022/09/24 04:25:32;;;;;;;2.17;1.80;;;22.10;43.60;;;;;;5008343;28;20041;-60
2022/09/24 04:28:02;;;;;;;2.28;1.90;;;22.10;43.60;;;;;;5008335;28;20414;-60
2022/09/24 04:30:31;;;;;;;2.17;1.98;;;22.10;43.60;;;;;;5008382;28;20048;-60
2022/09/24 04:32:59;;;;;;;2.85;2.00;;;22.10;43.60;;;;;;5008950;28;20415;-60
2022/09/24 04:35:28;;;;;;;1.75;1.60;;;22.10;43.60;;;;;;5008475;28;20050;-60
2022/09/24 04:37:56;;;;;;;1.67;1.55;;;22.10;43.50;;;;;;5007842;28;20053;-60
2022/09/24 04:40:23;;;;;;;3.00;2.33;;;22.10;43.40;;;;;;5008194;28;20207;-60
2022/09/24 04:42:51;;;;;;;2.92;2.10;;;22.10;43.30;;;;;;5007999;28;20406;-60
2022/09/24 04:45:19;;;;;;;2.03;1.80;;;22.10;43.20;;;;;;5003635;28;20722;-59
2022/09/24 04:47:51;;;;;;;2.45;2.10;;;22.00;43.10;;;;;;5007933;28;20128;-60
2022/09/24 04:50:19;;;;;;;2.95;2.10;;;22.10;43.30;;;;;;5009550;28;20050;-60
2022/09/24 04:52:46;;;;;;;2.20;2.10;;;22.00;43.00;;;;;;5012587;28;20046;-60
2022/09/24 04:55:13;;;;;;;2.38;2.15;;;22.00;43.00;;;;;;4994296;28;20042;-60
2022/09/24 04:57:41;;;;;;;2.33;1.95;;;22.00;43.00;;;;;;5012287;28;20060;-60
2022/09/24 05:00:13;;;;;;;2.15;1.95;;;22.00;43.00;;;;;;5011836;28;20069;-60
2022/09/24 05:02:41;;;;;;;2.97;1.98;;;22.10;43.00;;;;;;5012296;28;20046;-60
2022/09/24 05:05:10;;;;;;;2.20;1.73;;;22.00;42.90;;;;;;5011975;28;20053;-60
2022/09/24 05:07:37;;;;;;;2.22;1.88;;;22.00;42.90;;;;;;5011711;28;20046;-60
2022/09/24 05:10:05;;;;;;;1.92;1.83;;;22.00;42.90;;;;;;5012446;28;20042;-60
2022/09/24 05:12:35;;;;;;;2.00;1.83;;;22.00;42.80;;;;;;5011805;28;20410;-60
2022/09/24 05:15:03;;;;;;;1.70;1.55;;;22.10;42.80;;;;;;5011792;28;20538;-59
2022/09/24 05:17:30;;;;;;;2.33;1.60;;;22.00;42.70;;;;;;5007172;28;20107;-60
2022/09/24 05:19:58;;;;;;;1.58;1.48;;;22.00;42.60;;;;;;5011347;28;20050;-60
2022/09/24 05:22:26;;;;;;;3.72;1.80;;;22.10;42.60;;;;;;5011508;28;20137;-59
2022/09/24 05:24:53;;;;;;;3.55;2.00;;;22.10;42.60;;;;;;5011303;28;20514;-60
2022/09/24 05:27:22;;;;;;;1.90;1.70;;;22.10;42.50;;;;;;5011543;28;20058;-60
2022/09/24 05:29:49;;;;;;;1.60;1.50;;;22.10;42.40;;;;;;5011628;28;20338;-60
2022/09/24 05:32:19;;;;;;;2.33;2.10;;;22.20;42.40;;;;;;5011515;28;20058;-60
2022/09/24 05:34:46;;;;;;;2.30;2.10;;;22.20;42.30;;;;;;5011594;28;20516;-60
2022/09/24 05:37:14;;;;;;;1.92;1.80;;;22.20;42.20;;;;;;5011349;28;20050;-60
2022/09/24 05:39:41;;;;;;;2.50;2.30;;;22.20;42.10;;;;;;5011473;28;20072;-60
2022/09/24 05:42:09;;;;;;;2.60;2.05;;;22.20;42.10;;;;;;5011731;28;20078;-59
2022/09/24 05:44:37;;;;;;;3.55;2.30;;;22.30;42.00;;;;;;5011422;28;20046;-60
2022/09/24 05:47:04;;;;;;;2.58;1.80;;;22.30;41.90;;;;;;5011326;28;20042;-60
2022/09/24 05:49:31;;;;;;;4.60;2.17;;;22.30;41.80;;;;;;5007025;28;20049;-60
2022/09/24 05:51:58;;;;;;;2.45;2.25;;;22.30;41.70;;;;;;5011218;28;20069;-60
2022/09/24 05:54:25;;;;;;;3.38;2.75;;;22.40;41.70;;;;;;5010747;28;20052;-60
2022/09/24 05:56:52;;;;;;;2.42;2.22;;;22.30;41.50;;;;;;5010801;28;20053;-60
2022/09/24 05:59:19;;;;;;;2.63;2.30;;;22.30;41.50;;;;;;5010675;28;20049;-60
2022/09/24 06:01:47;;;;;;;3.55;3.05;;;22.40;41.50;;;;;;5011070;28;20058;-60
2022/09/24 06:04:14;;;;;;;4.63;2.83;;;22.40;41.50;;;;;;5010924;28;20643;-60
2022/09/24 06:06:42;;;;;;;6.53;3.05;;;22.40;41.50;;;;;;5010914;28;20050;-59
2022/09/24 06:09:09;;;;;;;3.15;2.78;;;22.50;41.50;;;;;;5010615;28;20306;-59
2022/09/24 06:11:37;;;;;;;3.47;3.13;;;22.50;41.40;;;;;;5010548;28;20447;-60
2022/09/24 06:14:07;;;;;;;3.50;2.60;;;22.50;41.40;;;;;;5011141;28;20045;-59
2022/09/24 06:16:35;;;;;;;3.50;2.55;;;22.50;41.30;;;;;;5010860;28;20049;-59
2022/09/24 06:19:02;;;;;;;3.88;3.40;;;22.50;41.30;;;;;;5010608;28;20101;-60
2022/09/24 06:21:29;;;;;;;3.35;2.78;;;22.50;41.20;;;;;;5006531;28;20053;-60
2022/09/24 06:23:56;;;;;;;2.90;2.60;;;22.50;41.20;;;;;;5010740;28;20053;-60
2022/09/24 06:26:25;;;;;;;7.57;3.03;;;22.50;41.10;;;;;;5010403;28;20050;-60
2022/09/24 06:28:52;;;;;;;3.92;3.22;;;22.60;41.10;;;;;;5010426;28;20045;-60
2022/09/24 06:31:19;;;;;;;3.85;3.08;;;22.60;41.10;;;;;;5010632;28;20045;-60
2022/09/24 06:33:46;;;;;;;3.97;2.90;;;22.60;41.00;;;;;;5010063;28;20046;-60
2022/09/24 06:36:13;;;;;;;5.50;3.88;;;22.60;40.90;;;;;;5010627;28;20479;-60
2022/09/24 06:38:40;;;;;;;5.90;3.28;;;22.70;40.90;;;;;;5009969;28;20050;-60
2022/09/24 06:41:08;;;;;;;3.40;3.03;;;22.70;40.80;;;;;;4992950;28;20605;-60
2022/09/24 06:43:36;;;;;;;4.20;3.25;;;22.70;40.80;;;;;;5009789;28;20049;-59
2022/09/24 06:46:03;;;;;;;4.82;3.53;;;22.70;40.70;;;;;;5010521;28;20149;-59
2022/09/24 06:48:31;;;;;;;4.53;4.07;;;22.80;40.70;;;;;;5009991;28;20503;-59
2022/09/24 06:50:58;;;;;;;5.30;3.63;;;22.80;40.70;;;;;;5009880;28;20073;-60
2022/09/24 06:53:25;;;;;;;5.55;4.22;;;22.80;40.70;;;;;;5005579;28;20053;-60
2022/09/24 06:55:57;;;;;;;5.82;3.90;;;22.90;40.70;;;;;;5010288;28;20046;-59
2022/09/24 06:58:25;;;;;;;8.68;4.15;;;22.90;40.70;;;;;;5008545;28;20053;-59
2022/09/24 07:00:58;;;;;;;6.45;4.10;;;22.90;40.60;;;;;;5009718;28;20045;-59
2022/09/24 07:03:26;;;;;;;4.97;4.10;;;23.00;40.60;;;;;;5009662;28;20108;-60
2022/09/24 07:05:54;;;;;;;5.90;4.50;;;23.00;40.50;;;;;;5010550;28;20363;-60
2022/09/24 07:08:22;;;;;;;5.78;4.78;;;23.10;40.50;;;;;;5029468;28;20050;-60
2022/09/24 07:10:50;;;;;;;6.47;4.63;;;23.10;40.40;;;;;;5013679;28;20056;-60
2022/09/24 07:13:20;;;;;;;5.07;4.20;;;23.20;40.40;;;;;;5008076;28;20073;-60
2022/09/24 07:15:49;;;;;;;5.90;4.40;;;23.20;40.30;;;;;;5009547;28;20049;-59
2022/09/24 07:18:17;;;;;;;4.95;3.90;;;23.30;40.20;;;;;;5008226;28;20490;-60
2022/09/24 07:20:49;;;;;;;4.80;4.25;;;23.30;40.10;;;;;;5009615;28;20056;-60
2022/09/24 07:23:17;;;;;;;5.18;3.95;;;23.30;39.90;;;;;;5009281;28;20049;-60
2022/09/24 07:25:44;;;;;;;7.07;4.13;;;23.40;39.80;;;;;;5005193;28;20061;-60
2022/09/24 07:28:14;;;;;;;5.32;4.10;;;23.40;39.70;;;;;;4991720;28;20057;-60
2022/09/24 07:30:42;;;;;;;5.65;3.97;;;23.50;39.50;;;;;;5024641;28;20465;-60
2022/09/24 07:33:09;;;;;;;5.10;3.92;;;23.50;39.40;;;;;;5029174;28;20508;-60
2022/09/24 07:35:38;;;;;;;4.25;3.83;;;23.50;39.30;;;;;;5029169;28;20049;-60
2022/09/24 07:38:14;;;;;;;4.72;3.55;;;23.60;39.20;;;;;;5028911;28;20064;-59
2022/09/24 07:40:43;;;;;;;3.38;3.03;;;23.60;39.60;;;;;;5028815;28;20064;-60
2022/09/24 07:43:12;;;;;;;3.90;3.17;;;23.60;39.00;;;;;;5029345;28;20091;-60
2022/09/24 07:45:41;;;;;;;4.38;3.42;;;23.70;38.90;;;;;;5028445;28;20045;-60
2022/09/24 07:48:09;;;;;;;3.55;2.92;;;23.70;38.90;;;;;;5028429;28;20230;-60
2022/09/24 07:50:41;;;;;;;3.88;3.20;;;23.70;38.80;;;;;;5028861;28;20060;-60
2022/09/24 07:53:12;;;;;;;3.92;3.20;;;23.70;38.80;;;;;;5011393;28;20127;-60
2022/09/24 07:55:39;;;;;;;4.95;3.45;;;23.70;38.70;;;;;;5028169;28;20053;-60
2022/09/24 07:58:10;;;;;;;4.22;3.42;;;23.70;38.70;;;;;;5016088;28;20087;-60
2022/09/24 08:00:37;;;;;;;3.38;2.72;;;23.70;38.50;;;;;;5028800;28;20042;-60
2022/09/24 08:03:04;;;;;;;3.10;2.80;;;23.80;38.50;;;;;;5028328;28;20053;-60
2022/09/24 08:05:32;;;;;;;4.07;2.55;;;23.80;38.50;;;;;;5027749;28;20067;-61
2022/09/24 08:07:59;;;;;;;3.03;2.70;;;23.80;38.40;;;;;;5028200;28;20416;-60
2022/09/24 08:10:27;;;;;;;3.75;2.95;;;23.80;38.40;;;;;;5027973;28;20606;-60
2022/09/24 08:12:57;;;;;;;4.85;2.67;;;23.80;38.40;;;;;;5028533;28;20390;-60
2022/09/24 08:15:24;;;;;;;;;;;23.80;38.50;;;;;;5028114;28;20049;-59
2022/09/24 08:17:51;;;;;;;4.00;2.78;;;23.90;38.40;;;;;;5028373;28;20287;-60
2022/09/24 08:20:22;;;;;;;3.00;2.53;;;23.90;38.50;;;;;;5028242;28;20133;-60
2022/09/24 08:22:49;;;;;;;3.30;2.67;;;23.90;38.40;;;;;;5027726;28;20053;-60
2022/09/24 08:25:16;;;;;;;4.40;2.60;;;23.90;38.30;;;;;;5027376;28;20038;-60
2022/09/24 08:27:43;;;;;;;4.35;2.53;;;23.90;38.40;;;;;;5028056;28;20050;-60
2022/09/24 08:30:10;;;;;;;4.82;2.60;;;24.00;38.30;;;;;;5027758;28;20086;-60
2022/09/24 08:32:38;;;;;;;3.47;2.65;;;23.90;38.20;;;;;;5024622;28;20049;-60
2022/09/24 08:35:07;;;;;;;4.03;2.70;;;24.00;38.20;;;;;;5027594;28;20552;-60
2022/09/24 08:37:34;;;;;;;3.53;2.67;;;24.00;38.20;;;;;;5028212;28;20136;-60
2022/09/24 08:40:02;;;;;;;2.25;2.05;;;24.00;38.10;;;;;;5028045;28;20410;-60
2022/09/24 08:43:09;;;;;;;3.20;2.65;;;24.10;38.10;;;;;;5027687;28;20057;-60
2022/09/24 08:48:36;;;;;;;1.92;1.83;;;24.10;38.00;;;;;;5027727;28;20133;-60
2022/09/24 08:51:11;;;;;;;3.45;2.30;;;24.10;38.00;;;;;;5027627;28;20046;-60
2022/09/24 08:54:07;;;;;;;3.20;2.60;;;24.10;38.50;;;;;;5027293;28;20053;-60
2022/09/24 08:56:38;;;;;;;2.63;2.28;;;24.10;37.90;;;;;;5027501;28;20041;-60
2022/09/24 08:59:30;;;;;;;3.00;2.40;;;24.10;38.00;;;;;;5027547;28;20042;-60
2022/09/24 09:02:34;;;;;;;3.28;2.15;;;24.10;38.00;;;;;;4997498;28;20150;-60
2022/09/24 09:05:26;;;;;;;2.97;2.47;;;24.10;38.00;;;;;;5022511;28;20053;-60
2022/09/24 09:08:10;;;;;;;2.92;1.95;;;24.10;38.00;;;;;;5027091;28;20239;-60
2022/09/24 09:11:02;;;;;;;3.08;2.15;;;24.20;38.10;;;;;;5027469;28;20049;-60
2022/09/24 09:13:35;;;;;;;2.25;1.90;;;24.20;38.10;;;;;;5027241;28;20239;-60
2022/09/24 09:16:11;;;;;;;2.95;1.55;;;24.20;38.10;;;;;;5027484;28;20500;-59
2022/09/24 09:18:41;;;;;;;3.97;1.95;;;24.20;38.00;;;;;;5027871;28;20041;-60
2022/09/24 09:21:17;;;;;;;2.78;1.92;;;24.20;38.00;;;;;;5027763;28;20048;-60
2022/09/24 09:23:49;;;;;;;2.08;1.80;;;24.30;38.10;;;;;;5027104;28;20041;-61
2022/09/24 09:26:19;;;;;;;2.17;1.98;;;24.30;38.00;;;;;;5027426;28;20080;-60
2022/09/24 09:28:47;;;;;;;3.10;2.30;;;24.30;38.00;;;;;;5027908;28;20057;-61
2022/09/24 09:31:35;;;;;;;3.05;2.17;;;24.30;38.00;;;;;;5027235;28;20049;-60
2022/09/24 09:34:30;;;;;;;2.30;1.70;;;24.30;38.00;;;;;;5027573;28;20092;-60
2022/09/24 09:37:19;;;;;;;2.00;1.77;;;24.30;37.90;;;;;;5024877;28;20045;-60
2022/09/24 09:40:24;;;;;;;2.17;1.90;;;24.30;38.00;;;;;;5031171;28;20517;-60
2022/09/24 09:43:03;;;;;;;2.05;1.83;;;24.30;37.90;;;;;;5031080;28;20132;-60
2022/09/24 09:46:04;;;;;;;2.05;1.90;;;24.30;37.90;;;;;;5031453;28;20052;-60
2022/09/24 09:48:43;;;;;;;5.28;2.00;;;24.30;37.90;;;;;;5015545;28;20053;-60
2022/09/24 09:51:23;;;;;;;3.10;2.03;;;24.40;38.00;;;;;;5030804;28;20057;-60
2022/09/24 09:53:54;;;;;;;;;;;24.40;38.00;;;;;;5031205;28;20049;-60
2022/09/24 09:56:28;;;;;;;1.63;1.52;;;24.40;37.90;;;;;;5030537;28;20089;-60
2022/09/24 09:59:07;;;;;;;3.33;2.05;;;24.40;38.00;;;;;;5030567;28;20052;-60
2022/09/24 10:01:39;;;;;;;1.73;1.60;;;24.40;38.00;;;;;;5031306;28;20056;-60
2022/09/24 10:04:35;;;;;;;1.88;1.45;;;24.50;38.00;;;;;;5013959;28;20180;-60
2022/09/24 10:07:08;;;;;;;3.42;1.55;;;24.50;38.00;;;;;;5030762;28;20379;-60
2022/09/24 10:09:37;;;;;;;2.50;1.65;;;24.50;38.00;;;;;;5027601;28;20053;-60
2022/09/24 10:12:21;;;;;;;1.52;1.42;;;24.50;37.90;;;;;;5030511;28;20242;-59
2022/09/24 10:15:00;;;;;;;1.33;1.30;;;24.50;37.90;;;;;;5030501;28;20123;-60
2022/09/24 10:17:37;;;;;;;2.40;1.53;;;24.50;37.90;;;;;;5029301;28;20408;-60
2022/09/24 10:20:28;;;;;;;1.58;1.48;;;24.50;37.90;;;;;;5030502;28;20289;-60
2022/09/24 10:23:05;;;;;;;1.30;1.20;;;24.50;37.90;;;;;;5030199;28;20045;-60
2022/09/24 10:25:36;;;;;;;1.60;1.50;;;24.60;37.90;;;;;;5030354;28;20060;-60
2022/09/24 10:31:00;;;;;;;1.52;1.27;;;24.60;37.90;;;;;;5030510;28;20154;-60
2022/09/24 10:33:36;;;;;;;1.55;1.20;;;24.60;37.80;;;;;;5029761;28;20091;-60
2022/09/24 10:36:06;;;;;;;1.85;1.50;;;24.70;37.90;;;;;;5029959;28;20205;-60
2022/09/24 10:38:33;;;;;;;2.15;1.45;;;24.70;37.80;;;;;;5029838;28;20053;-60
2022/09/24 10:41:00;;;;;;;1.55;1.38;;;24.70;37.80;;;;;;5025921;28;20525;-60
2022/09/24 10:43:28;;;;;;;1.55;1.45;;;24.70;37.80;;;;;;5029337;28;20049;-60
2022/09/24 10:46:20;;;;;;;1.67;1.58;;;24.70;37.70;;;;;;5030484;28;20375;-59
2022/09/24 10:49:01;;;;;;;1.42;1.30;;;24.70;37.70;;;;;;5028528;28;20049;-60
2022/09/24 10:51:42;;;;;;;1.60;1.50;;;24.80;37.70;;;;;;5029895;28;20494;-60
2022/09/24 10:54:41;;;;;;;1.25;1.15;;;24.80;37.70;;;;;;5029878;28;20056;-60
2022/09/24 10:57:48;;;;;;;1.48;1.38;;;24.80;37.60;;;;;;5029735;28;20321;-60
2022/09/24 11:00:23;;;;;;;1.58;1.30;;;24.80;37.60;;;;;;5029634;28;20052;-60
2022/09/24 11:03:23;;;;;;;1.77;1.67;;;24.80;37.70;;;;;;5029560;28;20049;-60
2022/09/24 11:05:55;;;;;;;3.05;1.67;;;24.80;37.60;;;;;;5029627;28;20072;-60
2022/09/24 11:08:47;;;;;;;2.10;1.27;;;24.90;37.70;;;;;;5029439;28;20053;-60
2022/09/24 11:11:46;;;;;;;1.52;1.42;;;24.90;37.70;;;;;;5029574;28;20072;-60
2022/09/24 11:14:50;;;;;;;1.63;1.30;;;24.90;37.60;;;;;;5025783;28;20037;-60
2022/09/24 11:17:32;;;;;;;2.95;1.42;;;24.90;37.60;;;;;;5029293;28;20051;-60
2022/09/24 11:20:29;;;;;;;1.58;1.20;;;24.90;37.50;;;;;;5029000;28;20055;-60
2022/09/24 11:23:18;;;;;;;1.65;1.55;;;24.90;37.50;;;;;;5014303;28;20041;-60
2022/09/24 11:26:24;;;;;;;1.27;1.23;;;24.90;37.50;;;;;;5028891;28;20068;-60
2022/09/24 11:29:25;;;;;;;2.10;1.60;;;25.00;37.50;;;;;;5029347;28;20474;-60
2022/09/24 11:32:19;;;;;;;1.80;1.40;;;25.00;37.50;;;;;;5029051;28;20061;-60
2022/09/24 11:35:22;;;;;;;1.30;1.20;;;25.00;37.40;;;;;;5028820;28;20557;-60
2022/09/24 11:38:19;;;;;;;1.98;1.50;;;25.00;37.40;;;;;;5028806;28;20505;-60
2022/09/24 11:41:26;;;;;;;1.30;1.20;;;25.00;37.40;;;;;;5029486;28;20481;-60
2022/09/24 11:44:26;;;;;;;1.67;1.58;;;25.00;37.40;;;;;;5027095;28;20053;-60
2022/09/24 11:47:08;;;;;;;1.27;1.10;;;25.10;37.40;;;;;;5027575;28;20338;-60
2022/09/24 11:50:03;;;;;;;1.10;1.00;;;25.00;37.40;;;;;;5028428;28;20386;-60
2022/09/24 11:52:38;;;;;;;1.08;1.05;;;25.10;37.40;;;;;;5028740;28;20508;-60
2022/09/24 11:55:17;;;;;;;1.15;0.98;;;25.10;37.50;;;;;;5028466;28;20053;-60
2022/09/24 11:57:56;;;;;;;2.08;1.52;;;25.10;37.40;;;;;;5028617;28;20060;-60
2022/09/24 12:00:31;;;;;;;2.25;1.27;;;25.10;37.40;;;;;;5028980;28;20056;-60
2022/09/24 12:03:05;;;;;;;1.13;1.13;;;25.10;37.40;;;;;;5028409;28;20060;-60
2022/09/24 12:05:43;;;;;;;1.05;1.02;;;25.10;37.40;;;;;;5028463;28;20080;-60
2022/09/24 12:08:32;;;;;;;1.40;1.30;;;25.10;37.40;;;;;;5011490;28;20060;-60
2022/09/24 12:11:22;;;;;;;1.30;1.20;;;25.10;37.30;;;;;;5028618;28;20045;-59
2022/09/24 12:14:22;;;;;;;1.20;1.10;;;25.10;37.30;;;;;;5026789;28;20041;-60
2022/09/24 12:16:55;;;;;;;1.42;1.00;;;25.20;37.30;;;;;;5009592;28;20046;-60
2022/09/24 12:19:48;;;;;;;1.00;1.00;;;25.20;37.30;;;;;;5028117;28;20054;-60
2022/09/24 12:22:18;;;;;;;1.02;0.98;;;25.20;37.30;;;;;;5028078;28;20041;-60
2022/09/24 12:24:51;;;;;;;2.80;1.10;;;25.10;37.20;;;;;;5028137;28;20068;-60
2022/09/24 12:27:35;;;;;;;2.10;1.13;;;25.20;37.30;;;;;;5028071;28;20049;-60
2022/09/24 12:33:33;;;;;;;1.02;1.02;;;25.20;37.30;;;;;;5027589;28;20547;-60
2022/09/24 12:36:26;;;;;;;1.40;1.30;;;25.20;37.30;;;;;;5027593;28;20233;-60
2022/09/24 12:39:00;;;;;;;1.88;1.10;;;25.20;37.30;;;;;;5028123;28;20060;-59
2022/09/24 12:41:31;;;;;;;1.00;1.00;;;25.20;37.40;;;;;;5027993;28;20134;-60
2022/09/24 12:44:15;;;;;;;1.02;1.02;;;25.20;37.40;;;;;;5027252;28;20482;-60
2022/09/24 12:46:57;;;;;;;0.73;0.73;;;25.20;37.30;;;;;;5028262;28;20108;-60
2022/09/24 12:49:36;;;;;;;0.90;0.90;;;25.20;37.30;;;;;;5023616;28;20084;-60
2022/09/24 12:52:17;;;;;;;1.55;1.45;;;25.20;37.30;;;;;;5027847;28;20297;-60
2022/09/24 12:54:44;;;;;;;1.45;0.90;;;25.20;37.30;;;;;;5027869;28;20052;-60
2022/09/24 12:57:24;;;;;;;1.40;1.30;;;25.20;37.30;;;;;;5027805;28;20052;-59
2022/09/24 12:59:55;;;;;;;0.90;0.90;;;25.20;37.40;;;;;;5027487;28;20088;-60
2022/09/24 13:02:42;;;;;;;1.25;1.00;;;25.10;37.40;;;;;;5028182;28;20052;-60
2022/09/24 13:05:44;;;;;;;1.10;1.00;;;25.10;37.40;;;;;;5009870;28;20049;-60
2022/09/24 13:08:24;;;;;;;0.98;0.98;;;25.10;37.40;;;;;;5027763;28;20061;-60
2022/09/24 13:10:59;;;;;;;1.35;0.90;;;25.10;37.40;;;;;;5027941;28;20365;-59
2022/09/24 13:13:31;;;;;;;0.90;0.90;;;25.10;37.40;;;;;;5031724;28;20329;-60
2022/09/24 13:16:05;;;;;;;1.17;1.10;;;25.10;37.40;;;;;;5013947;28;20597;-60
2022/09/24 13:18:36;;;;;;;0.75;0.75;;;25.10;37.40;;;;;;5032036;28;20129;-60
2022/09/24 13:21:07;;;;;;;0.70;0.70;;;25.10;37.50;;;;;;5027019;28;20041;-59
2022/09/24 13:23:48;;;;;;;1.30;1.20;;;25.10;37.50;;;;;;5031081;28;20376;-60
2022/09/24 13:26:29;;;;;;;1.10;0.90;;;25.10;37.50;;;;;;5031052;28;20055;-60
2022/09/24 13:28:59;;;;;;;1.30;1.20;;;25.10;37.50;;;;;;5031803;28;20092;-59
2022/09/24 13:31:39;;;;;;;1.00;1.00;;;25.10;37.50;;;;;;5031303;28;20132;-60
2022/09/24 13:34:19;;;;;;;1.10;1.10;;;25.10;37.60;;;;;;5031307;28;20100;-60
2022/09/24 13:37:08;;;;;;;1.38;1.10;;;25.10;37.60;;;;;;5031242;28;20053;-59
2022/09/24 13:39:59;;;;;;;1.60;1.50;;;25.10;37.60;;;;;;5016716;28;20375;-60